• Join FlightAware (Why Join?)
  • Login
  • US Flag 
09:39PM EDT


 

Airport Tracker/Info


-or-


 

Live Flight TrackerFlight Track Log ✈ MSR94 ✈ 28-Jun-2013 ✈ HECA / CAI - HESN / ASW

Flight Track Log - Related Links

Times and Time Zones

All times are in EDT time to prevent confusion due to time zone crossing. See the MSR94 flight status page for this flight to view local times or setup timezone preferences in your user account.

Time Position Orientation Groundspeed Altitude Reporting Facility
EDT Latitude Longitude Course Direction KTS MPH feet Rate Location/Type
01:08AM -0.0330 0.0150 155° Southeast 338 389 10,000  Level FlightAware
01:09AM -0.0560 0.0030 208° Southwest 363 418 11,300 2,100 Climbing FlightAware
01:09AM -0.0560 0.0050 90° East 373 429 13,000 2,580 Climbing FlightAware
01:10AM -0.0560 0.0070 90° East 377 434 14,700 2,640 Climbing FlightAware
01:11AM -0.0470 0.0060 354° North 377 434 17,400 2,640 Climbing FlightAware
01:12AM -0.0410 0.0050 351° North 377 434 19,200 1,380 Climbing FlightAware
01:12AM -0.0960 0.0120 173° South 377 434 19,200  Level FlightAware
01:13AM -0.1680 0.0210 173° South 377 434 19,200  Level FlightAware
01:14AM -0.2270 0.0280 173° South 377 434 19,200  Level FlightAware
01:14AM -0.2800 0.0340 174° South 377 434 19,200  Level FlightAware
01:18AM -0.0089 0.3613 50° Northeast  Level Estimated
01:19AM 0.0772 0.4651 50° Northeast  Level Estimated
01:20AM 0.1632 0.5690 50° Northeast  Level Estimated
01:21AM 0.2493 0.6729 50° Northeast  Level Estimated
01:22AM 0.3354 0.7768 50° Northeast  Level Estimated
01:23AM 0.4214 0.8807 50° Northeast  Level Estimated
01:24AM 0.5075 0.9846 50° Northeast  Level Estimated
01:25AM 0.5936 1.0885 50° Northeast  Level Estimated
01:26AM 0.6796 1.1924 50° Northeast  Level Estimated
01:27AM 0.7657 1.2963 50° Northeast  Level Estimated
01:28AM 0.8517 1.4002 50° Northeast  Level Estimated
01:29AM 0.9378 1.5042 50° Northeast  Level Estimated
01:30AM 1.0238 1.6081 50° Northeast  Level Estimated
01:31AM 1.1099 1.7120 50° Northeast  Level Estimated
01:32AM 1.1959 1.8159 50° Northeast  Level Estimated
01:33AM 1.2820 1.9199 50° Northeast  Level Estimated
01:34AM 1.3680 2.0238 50° Northeast  Level Estimated
01:35AM 1.4540 2.1278 50° Northeast  Level Estimated
01:36AM 1.5401 2.2317 50° Northeast  Level Estimated
01:37AM 1.6261 2.3357 50° Northeast  Level Estimated
01:38AM 1.7121 2.4397 50° Northeast  Level Estimated
01:39AM 1.7981 2.5437 50° Northeast  Level Estimated
01:40AM 1.8841 2.6477 50° Northeast  Level Estimated
01:41AM 1.9701 2.7517 50° Northeast  Level Estimated
01:42AM 2.0561 2.8557 50° Northeast  Level Estimated
01:43AM 2.1421 2.9597 50° Northeast  Level Estimated
01:44AM 2.2280 3.0638 50° Northeast  Level Estimated
01:45AM 2.3140 3.1678 50° Northeast  Level Estimated
01:46AM 2.4000 3.2719 50° Northeast  Level Estimated
01:47AM 2.4859 3.3760 50° Northeast  Level Estimated
01:48AM 2.5719 3.4801 50° Northeast  Level Estimated
01:49AM 2.6578 3.5842 50° Northeast  Level Estimated
01:50AM 2.7437 3.6883 50° Northeast  Level Estimated
01:51AM 2.8296 3.7924 50° Northeast  Level Estimated
01:52AM 2.9156 3.8966 50° Northeast  Level Estimated
01:53AM 3.0015 4.0008 50° Northeast  Level Estimated
01:54AM 3.0873 4.1049 50° Northeast  Level Estimated
01:55AM 3.1732 4.2091 50° Northeast  Level Estimated
01:56AM 3.2591 4.3134 50° Northeast  Level Estimated
01:57AM 3.3450 4.4176 50° Northeast  Level Estimated
01:58AM 3.4308 4.5219 50° Northeast  Level Estimated
01:59AM 3.5166 4.6261 50° Northeast  Level Estimated
02:00AM 3.6025 4.7304 50° Northeast  Level Estimated
02:01AM 3.6883 4.8347 50° Northeast  Level Estimated
02:02AM 3.7741 4.9391 51° Northeast  Level Estimated
02:03AM 3.8599 5.0434 51° Northeast  Level Estimated
02:04AM 3.9456 5.1478 51° Northeast  Level Estimated
02:05AM 4.0314 5.2522 51° Northeast  Level Estimated
02:06AM 4.1171 5.3566 51° Northeast  Level Estimated
02:07AM 4.2029 5.4611 51° Northeast  Level Estimated
02:08AM 4.2886 5.5655 51° Northeast  Level Estimated
02:09AM 4.3743 5.6700 51° Northeast  Level Estimated
02:10AM 4.4600 5.7745 51° Northeast  Level Estimated
02:11AM 4.5457 5.8790 51° Northeast  Level Estimated
02:12AM 4.6313 5.9836 51° Northeast  Level Estimated
02:13AM 4.7170 6.0882 51° Northeast  Level Estimated
02:14AM 4.8026 6.1928 51° Northeast  Level Estimated
02:15AM 4.8882 6.2975 51° Northeast  Level Estimated
02:16AM 4.9738 6.4021 51° Northeast  Level Estimated
02:17AM 5.0594 6.5068 51° Northeast  Level Estimated
02:18AM 5.1450 6.6115 51° Northeast  Level Estimated
02:19AM 5.2305 6.7163 51° Northeast  Level Estimated
02:20AM 5.3161 6.8211 51° Northeast  Level Estimated
02:21AM 5.4016 6.9259 51° Northeast  Level Estimated
02:22AM 5.4871 7.0307 51° Northeast  Level Estimated
02:23AM 5.5726 7.1356 51° Northeast  Level Estimated
02:24AM 5.6580 7.2404 51° Northeast  Level Estimated
02:25AM 5.7435 7.3454 51° Northeast  Level Estimated
02:26AM 5.8289 7.4503 51° Northeast  Level Estimated
02:27AM 5.9143 7.5553 51° Northeast  Level Estimated
02:28AM 5.9997 7.6603 51° Northeast  Level Estimated
02:29AM 6.0850 7.7654 51° Northeast  Level Estimated
02:30AM 6.1704 7.8705 51° Northeast  Level Estimated
02:31AM 6.2335 7.9483 51° Northeast  Level Estimated
02:32AM 6.2966 8.0261 51° Northeast  Level Estimated
02:33AM 6.3597 8.1039 51° Northeast  Level Estimated
02:34AM 6.4228 8.1817 51° Northeast  Level Estimated
02:35AM 6.4859 8.2596 51° Northeast  Level Estimated
02:36AM 6.5490 8.3375 51° Northeast  Level Estimated
02:37AM 6.6121 8.4154 51° Northeast  Level Estimated
02:38AM 6.6751 8.4933 51° Northeast  Level Estimated
02:39AM 6.7381 8.5712 51° Northeast  Level Estimated
02:40AM 6.8012 8.6492 51° Northeast  Level Estimated
02:41AM 6.8642 8.7272 51° Northeast  Level Estimated
02:42AM 6.9272 8.8052 51° Northeast  Level Estimated
02:43AM 6.9902 8.8832 51° Northeast  Level Estimated
02:44AM 7.0532 8.9612 51° Northeast  Level Estimated
02:45AM 7.1161 9.0393 51° Northeast  Level Estimated
02:46AM 7.1791 9.1174 51° Northeast  Level Estimated
02:47AM 7.2420 9.1955 51° Northeast  Level Estimated
02:48AM 7.3049 9.2736 51° Northeast  Level Estimated
02:49AM 7.3678 9.3518 51° Northeast  Level Estimated
02:50AM 7.4307 9.4299 51° Northeast  Level Estimated
02:51AM 7.4936 9.5081 51° Northeast  Level Estimated
02:52AM 7.5565 9.5863 51° Northeast  Level Estimated
02:53AM 7.6193 9.6646 51° Northeast  Level Estimated
02:54AM 7.6822 9.7428 51° Northeast  Level Estimated
02:55AM 7.7450 9.8211 51° Northeast  Level Estimated
02:56AM 7.8078 9.8994 51° Northeast  Level Estimated
02:57AM 7.8706 9.9778 51° Northeast  Level Estimated
02:58AM 7.9334 10.0561 51° Northeast  Level Estimated
02:59AM 7.9962 10.1345 51° Northeast  Level Estimated
03:00AM 8.0589 10.2129 51° Northeast  Level Estimated
03:01AM 8.1217 10.2913 51° Northeast  Level Estimated
03:02AM 8.1844 10.3698 51° Northeast  Level Estimated
03:03AM 8.2471 10.4482 51° Northeast  Level Estimated
03:04AM 8.3098 10.5267 51° Northeast  Level Estimated
03:05AM 8.3725 10.6053 51° Northeast  Level Estimated
03:06AM 8.4352 10.6838 51° Northeast  Level Estimated
03:07AM 8.4978 10.7624 51° Northeast  Level Estimated
03:08AM 8.5604 10.8410 51° Northeast  Level Estimated
03:09AM 8.6231 10.9196 51° Northeast  Level Estimated
03:10AM 8.6857 10.9983 51° Northeast  Level Estimated
03:11AM 8.7482 11.0770 51° Northeast  Level Estimated
03:12AM 8.8108 11.1557 51° Northeast  Level Estimated
03:13AM 8.8734 11.2344 51° Northeast  Level Estimated
03:14AM 8.9359 11.3132 51° Northeast  Level Estimated
03:15AM 8.9984 11.3920 51° Northeast  Level Estimated
03:16AM 9.0609 11.4708 51° Northeast  Level Estimated
03:17AM 9.1234 11.5496 51° Northeast  Level Estimated
03:18AM 9.1859 11.6285 51° Northeast  Level Estimated
03:19AM 9.2483 11.7074 51° Northeast  Level Estimated
03:20AM 9.3108 11.7863 51° Northeast  Level Estimated
03:21AM 9.3732 11.8653 51° Northeast  Level Estimated
03:22AM 9.4356 11.9443 51° Northeast  Level Estimated
03:23AM 9.4980 12.0233 51° Northeast  Level Estimated
03:24AM 9.5603 12.1023 51° Northeast  Level Estimated
03:25AM 9.6227 12.1814 51° Northeast  Level Estimated
03:26AM 9.6850 12.2605 51° Northeast  Level Estimated
03:27AM 9.7473 12.3396 51° Northeast  Level Estimated